TimeMDT,TemperatureF,Dew PointF,Humidity,Sea Level PressureIn,VisibilityMPH,Wind Direction,Wind SpeedMPH,Gust SpeedMPH,PrecipitationIn,Events,Conditions,WindDirDegrees,DateUTC
12:15 AM,75.2,64.4,69,30.04,10.0,Calm,Calm,-,N/A,,Clear,0,2013-07-30 06:15:00
12:35 AM,75.2,64.4,69,30.04,10.0,South,5.8,-,N/A,,Clear,170,2013-07-30 06:35:00
12:55 AM,77.0,62.6,61,30.04,10.0,South,4.6,-,N/A,,Clear,180,2013-07-30 06:55:00
1:15 AM,77.0,62.6,61,30.04,10.0,South,9.2,-,N/A,,Clear,170,2013-07-30 07:15:00
1:35 AM,77.0,62.6,61,30.04,10.0,SSW,5.8,-,N/A,,Clear,200,2013-07-30 07:35:00
1:55 AM,73.4,62.6,69,30.04,10.0,SSE,3.5,-,N/A,,Clear,150,2013-07-30 07:55:00
2:15 AM,73.4,62.6,69,30.05,10.0,SE,4.6,-,N/A,,Clear,130,2013-07-30 08:15:00
2:35 AM,73.4,64.4,73,30.05,10.0,SE,5.8,-,N/A,,Clear,140,2013-07-30 08:35:00
2:55 AM,73.4,62.6,69,30.06,10.0,Calm,Calm,-,N/A,,Clear,0,2013-07-30 08:55:00
3:15 AM,73.4,62.6,69,30.06,10.0,Calm,Calm,-,N/A,,Clear,0,2013-07-30 09:15:00
3:35 AM,73.4,62.6,69,30.07,10.0,WSW,3.5,-,N/A,,Clear,250,2013-07-30 09:35:00
3:55 AM,73.4,62.6,69,30.09,10.0,NNE,8.1,-,N/A,,Clear,20,2013-07-30 09:55:00
4:15 AM,71.6,64.4,78,30.09,10.0,Calm,Calm,-,N/A,,Clear,0,2013-07-30 10:15:00
4:35 AM,71.6,64.4,78,30.09,10.0,WSW,5.8,-,N/A,,Clear,240,2013-07-30 10:35:00
4:55 AM,71.6,62.6,73,30.10,10.0,WNW,10.4,-,N/A,,Clear,290,2013-07-30 10:55:00
5:15 AM,73.4,57.2,57,30.11,10.0,WNW,11.5,-,N/A,,Clear,300,2013-07-30 11:15:00
5:35 AM,75.2,57.2,53,30.12,10.0,NW,12.7,-,N/A,,Clear,310,2013-07-30 11:35:00
5:55 AM,73.4,59.0,61,30.12,10.0,NW,16.1,21.9,N/A,,Clear,310,2013-07-30 11:55:00
6:15 AM,73.4,59.0,61,30.13,10.0,NW,17.3,-,N/A,,Clear,320,2013-07-30 12:15:00
6:35 AM,73.4,60.8,65,30.14,10.0,NW,17.3,23.0,N/A,,Clear,320,2013-07-30 12:35:00
6:55 AM,73.4,62.6,69,30.14,10.0,NNW,18.4,-,N/A,,Clear,330,2013-07-30 12:55:00
7:15 AM,73.4,62.6,69,30.15,10.0,NNW,18.4,24.2,N/A,,Clear,340,2013-07-30 13:15:00
7:35 AM,75.2,62.6,65,30.16,10.0,NNW,17.3,21.9,N/A,,Clear,340,2013-07-30 13:35:00
7:55 AM,77.0,62.6,61,30.17,10.0,North,18.4,-,N/A,,Clear,350,2013-07-30 13:55:00
8:15 AM,77.0,62.6,61,30.17,10.0,North,21.9,-,N/A,,Clear,350,2013-07-30 14:15:00
8:35 AM,78.8,62.6,57,30.18,10.0,North,18.4,-,N/A,,Clear,360,2013-07-30 14:35:00
8:55 AM,80.6,62.6,54,30.18,10.0,NNW,16.1,-,N/A,,Clear,340,2013-07-30 14:55:00
9:15 AM,80.6,62.6,54,30.19,10.0,NNW,18.4,21.9,N/A,,Clear,340,2013-07-30 15:15:00
9:35 AM,82.4,62.6,51,30.18,10.0,North,16.1,23.0,N/A,,Clear,10,2013-07-30 15:35:00
9:55 AM,82.4,62.6,51,30.19,10.0,North,17.3,-,N/A,,Clear,10,2013-07-30 15:55:00
10:15 AM,84.2,62.6,48,30.19,10.0,North,15.0,20.7,N/A,,Clear,10,2013-07-30 16:15:00
10:55 AM,84.2,60.8,45,30.19,10.0,North,17.3,21.9,N/A,,Clear,10,2013-07-30 16:55:00
11:15 AM,86.0,62.6,45,30.19,10.0,North,11.5,18.4,N/A,,Clear,360,2013-07-30 17:15:00
11:35 AM,86.0,60.8,43,30.18,10.0,North,11.5,18.4,N/A,,Clear,10,2013-07-30 17:35:00
12:15 PM,87.8,60.8,40,30.18,10.0,North,12.7,16.1,N/A,,Clear,350,2013-07-30 18:15:00
12:35 PM,89.6,59.0,36,30.17,10.0,NNE,10.4,-,N/A,,Clear,20,2013-07-30 18:35:00
12:55 PM,89.6,60.8,38,30.16,10.0,North,11.5,16.1,N/A,,Clear,350,2013-07-30 18:55:00
1:15 PM,91.4,59.0,34,30.16,10.0,NNE,8.1,-,N/A,,Clear,20,2013-07-30 19:15:00
1:35 PM,91.4,59.0,34,30.15,10.0,NW,5.8,-,N/A,,Clear,310,2013-07-30 19:35:00
1:55 PM,91.4,59.0,34,30.14,10.0,NNE,6.9,-,N/A,,Clear,20,2013-07-30 19:55:00
2:15 PM,93.2,57.2,30,30.13,10.0,NNW,5.8,-,N/A,,Clear,340,2013-07-30 20:15:00
2:35 PM,93.2,57.2,30,30.12,10.0,NNW,4.6,-,N/A,,Clear,330,2013-07-30 20:35:00
2:55 PM,95.0,57.2,28,30.12,10.0,North,9.2,-,N/A,,Clear,350,2013-07-30 20:55:00
3:15 PM,93.2,57.2,30,30.12,10.0,North,5.8,-,N/A,,Clear,350,2013-07-30 21:15:00
3:35 PM,95.0,55.4,26,30.11,10.0,North,10.4,-,N/A,,Clear,360,2013-07-30 21:35:00
3:55 PM,95.0,55.4,26,30.10,10.0,West,6.9,-,N/A,,Clear,270,2013-07-30 21:55:00
4:15 PM,95.0,51.8,23,30.10,10.0,North,5.8,-,N/A,,Clear,350,2013-07-30 22:15:00
4:35 PM,95.0,53.6,25,30.09,10.0,North,3.5,-,N/A,,Clear,350,2013-07-30 22:35:00
4:55 PM,96.8,53.6,23,30.08,10.0,NW,8.1,-,N/A,,Clear,320,2013-07-30 22:55:00
5:15 PM,96.8,53.6,23,30.08,10.0,NW,11.5,-,N/A,,Clear,320,2013-07-30 23:15:00
5:35 PM,95.0,55.4,26,30.08,10.0,West,12.7,17.3,N/A,,Clear,280,2013-07-30 23:35:00
5:55 PM,93.2,57.2,30,30.08,10.0,West,20.7,25.3,N/A,,Clear,280,2013-07-30 23:55:00
6:15 PM,91.4,57.2,31,30.08,10.0,West,16.1,-,N/A,,Clear,280,2013-07-31 00:15:00
6:35 PM,91.4,57.2,31,30.07,10.0,WNW,16.1,-,N/A,,Clear,290,2013-07-31 00:35:00
6:55 PM,89.6,59.0,36,30.07,10.0,West,13.8,-,N/A,,Clear,280,2013-07-31 00:55:00
7:15 PM,89.6,57.2,33,30.09,10.0,West,12.7,-,N/A,,Clear,270,2013-07-31 01:15:00
7:35 PM,87.8,59.0,38,30.09,10.0,West,13.8,-,N/A,,Clear,280,2013-07-31 01:35:00
7:55 PM,86.0,57.2,37,30.10,10.0,West,11.5,-,N/A,,Clear,270,2013-07-31 01:55:00
8:15 PM,84.2,57.2,40,30.11,10.0,West,8.1,-,N/A,,Clear,280,2013-07-31 02:15:00
8:35 PM,84.2,57.2,40,30.14,10.0,SE,4.6,-,N/A,Thunderstorm,Clear,140,2013-07-31 02:35:00
8:55 PM,82.4,57.2,42,30.14,10.0,South,3.5,-,N/A,,Clear,180,2013-07-31 02:55:00
9:15 PM,84.2,57.2,40,30.14,10.0,South,4.6,-,N/A,,Clear,180,2013-07-31 03:15:00
9:35 PM,82.4,57.2,42,30.14,10.0,SE,5.8,-,N/A,,Clear,130,2013-07-31 03:35:00
9:55 PM,80.6,57.2,45,30.14,10.0,SSW,8.1,-,N/A,,Clear,200,2013-07-31 03:55:00
10:15 PM,80.6,57.2,45,30.14,10.0,SW,9.2,-,N/A,,Clear,230,2013-07-31 04:15:00
10:35 PM,78.8,57.2,47,30.13,10.0,WSW,8.1,-,N/A,,Clear,250,2013-07-31 04:35:00
10:55 PM,78.8,57.2,47,30.13,10.0,West,8.1,-,N/A,,Clear,260,2013-07-31 04:55:00
11:15 PM,77.0,57.2,50,30.13,10.0,West,8.1,-,N/A,,Clear,270,2013-07-31 05:15:00
11:35 PM,77.0,59.0,54,30.13,10.0,WSW,6.9,-,N/A,,Clear,250,2013-07-31 05:35:00
11:55 PM,77.0,59.0,54,30.13,10.0,West,6.9,-,N/A,,Clear,260,2013-07-31 05:55:00